Santa Marta, Colombia

7:13 AM COT en Octubre 22, 2014 (GMT -0500)
Playa Salguero | Change Station
CLOSE
Current Station
Estación meteorológica personal
Location: Rodadero Sur Santa Marta, Magdalena
Altura: 0 ft
Estaciones meteorológicas cercanas

Alt 0 ft 11.19 °N, 74.23 °W | Updated 4 seconds ago

Scattered Clouds
Nubes dispersas
81.9 ° F
Sensación térmica 87 ° F
N
2.0
Viento Variable Viento desde ESE
Gusts 5.0 mph

Hoy
Alta -- | Baja -- ° F
--% Posibilidad de precipitaciones
Ayer
Alta -- | Baja -- ° F
Precip. -- pul
5:46 AM 5:35 PM
Creciente menguante, 2% visible
Presión 29.83 pul
Visibilidad 6.2 Millas
Nubes Baja 2000 ft
Nubes dispersas 7000 ft
Índice de calor 87 ° F
Punto de rocío 72 ° F
Humedad 72%
Precipitaciones 0.00 pul
Espesor de la nieve No disponible.
UV 1 de una escala de 12
Polen No disponible.
Calidad del aire No disponible.
Flu Activity No disponible.
METAR SKSM 221200Z 00000KT 9999 FEW020 SCT070 24/22 A2983

More Conditions Fewer Conditions

Presión 29.83 pul
Visibilidad 6.2 Millas
Nubes Baja 2000 ft
Nubes dispersas 7000 ft
Índice de calor 87 ° F
Punto de rocío 72 ° F
Humedad 72%
Precipitaciones 0.00 pul
Espesor de la nieve No disponible.
UV 1 de una escala de 12
Polen No disponible.
Calidad del aire No disponible.
Flu Activity No disponible.
METAR SKSM 221200Z 00000KT 9999 FEW020 SCT070 24/22 A2983

More Conditions Fewer Conditions

10-Day Weather Forecast

Almanac

Astronomía

Oct. 22, 2014 Salida Puesta
Hora real 5:46 AM COT 5:35 PM COT
Crepúsculo civil 5:25 AM COT 5:57 PM COT
Crepúsculo náutico 5:00 AM COT 6:22 PM COT
Crepúsculo astronómico 4:35 AM COT 6:46 PM COT
Luna 4:39 AM COT 4:51 PM COT
Horas de luz 12h 31m
Horas de luz
11h 49m
Tomorrow will be 0m 33s shorter.
Creciente menguante, 2% of the Moon is Illuminated
Hoy
Creciente menguante
Oct 23
Nueva
Oct 30
Cuarto creciente
Nov 6
Luna llena
Nov 14
Cuarto menguante

Extremos de ayer

Máximos del país Bajas del país

Community

WunderPhotos

Upload Photos

1,763,906 ¡fotos cargadas!

Nearby

Calidad del aire

Not available.

Grosos de nieve

Not available.

Actividad de terremotos

Ciudad Distance Mag. Tiempo y dato
No hay informes recientes de la actividad sísmica.
Magnitud mínima muestra es 2,5.

Temperaturas de aguas costeras

Lugar Temperatura
Sin partes meteorológicos de las estaciones

Estaciones meteorológicas cercanas